Time;durP1;ratioP1;P1;durP2;ratioP2;P2;SDS_P1;SDS_P2;PMS_P1;PMS_P2;Temp;Humidity;BMP_temperature;BMP_pressure;BME280_temperature;BME280_humidity;BME280_pressure;Samples;Min_cycle;Max_cycle;Signal;HPM_P1;HPM_P2
2022/09/05 00:02:02;;;;;;;21.90;3.88;;;;;;;15.25;44.46;101832.03;5076255;28;20054;-68
2022/09/05 00:04:57;;;;;;;8.25;3.88;;;;;;;15.31;44.44;101841.34;5111005;28;20550;-68
2022/09/05 00:07:32;;;;;;;11.30;4.18;;;;;;;15.40;44.15;101833.13;5110316;28;20472;-68
2022/09/05 00:10:27;;;;;;;6.95;3.67;;;;;;;15.20;44.50;101829.00;5093045;28;20049;-68
2022/09/05 00:13:08;;;;;;;8.88;3.55;;;;;;;15.18;44.62;101831.84;5082707;28;20047;-68
2022/09/05 00:15:47;;;;;;;8.90;4.10;;;;;;;15.25;44.43;101827.47;5116025;28;20119;-68
2022/09/05 00:18:33;;;;;;;12.25;3.45;;;;;;;15.10;44.30;101828.28;5103415;28;20044;-68
2022/09/05 00:21:43;;;;;;;8.73;4.03;;;;;;;15.23;44.33;101828.66;5093520;28;20389;-68
2022/09/05 00:24:36;;;;;;;6.80;4.28;;;;;;;15.04;44.75;101827.06;5093930;28;20460;-68
2022/09/05 00:27:49;;;;;;;11.07;4.18;;;;;;;14.92;45.17;101831.09;5093009;28;20063;-68
2022/09/05 00:30:18;;;;;;;8.02;4.22;;;;;;;15.00;44.82;101839.22;5094182;28;20403;-68
2022/09/05 00:33:15;;;;;;;11.35;4.25;;;;;;;15.09;44.76;101832.00;5082531;28;20380;-68
2022/09/05 00:35:52;;;;;;;7.85;4.03;;;;;;;15.01;45.01;101833.63;5114619;28;20070;-68
2022/09/05 00:38:22;;;;;;;6.10;3.97;;;;;;;14.99;44.91;101837.53;5101472;28;20048;-68
2022/09/05 00:41:12;;;;;;;7.60;4.00;;;;;;;14.90;45.09;101833.09;5094447;28;20044;-68
2022/09/05 00:43:46;;;;;;;8.25;4.55;;;;;;;14.88;45.25;101833.25;5094226;28;20539;-68
2022/09/05 00:46:35;;;;;;;10.45;4.32;;;;;;;14.67;45.62;101836.31;5093855;28;20126;-67
2022/09/05 00:49:39;;;;;;;7.65;4.00;;;;;;;14.83;45.39;101848.25;5094763;28;20118;-67
2022/09/05 00:52:29;;;;;;;9.18;3.63;;;;;;;14.85;45.18;101846.25;5092901;28;20535;-68
2022/09/05 00:55:04;;;;;;;9.82;4.25;;;;;;;14.73;45.51;101842.94;5093678;28;20051;-68
2022/09/05 00:57:49;;;;;;;11.13;3.97;;;;;;;14.64;45.87;101844.75;5093110;28;20048;-68
2022/09/05 01:00:34;;;;;;;8.93;4.03;;;;;;;14.54;45.91;101849.41;5093749;28;20071;-68
2022/09/05 01:03:28;;;;;;;8.50;4.22;;;;;;;14.70;45.72;101846.81;5093187;28;20132;-68
2022/09/05 01:10:02;;;;;;;7.68;4.47;;;;;;;14.69;45.85;101844.25;5093372;28;20051;-68
2022/09/05 01:12:56;;;;;;;8.13;4.40;;;;;;;14.67;45.63;101844.44;5093110;28;20118;-68
2022/09/05 01:15:32;;;;;;;9.70;4.22;;;;;;;14.74;45.41;101856.31;5091896;28;20122;-68
2022/09/05 01:18:06;;;;;;;15.57;3.85;;;;;;;14.61;45.89;101839.66;5093378;28;20536;-68
2022/09/05 01:20:39;;;;;;;6.28;4.15;;;;;;;14.72;45.53;101843.97;5092981;28;20048;-68
2022/09/05 01:23:23;;;;;;;11.75;4.38;;;;;;;14.50;45.98;101842.63;5092420;28;20440;-68
2022/09/05 01:26:05;;;;;;;14.43;3.97;;;;;;;14.51;46.23;101838.91;5092073;28;20494;-68
2022/09/05 01:28:31;;;;;;;;;;;;;;;14.57;45.93;101840.16;5092245;28;20046;-68
2022/09/05 01:31:33;;;;;;;7.07;4.43;;;;;;;14.40;46.35;101847.28;5088751;28;19920;-68
2022/09/05 01:34:28;;;;;;;7.03;4.15;;;;;;;14.49;46.14;101846.31;5091507;28;20047;-68
2022/09/05 01:37:02;;;;;;;11.93;5.22;;;;;;;14.36;46.58;101843.19;5091134;28;20602;-68
2022/09/05 01:39:50;;;;;;;9.07;4.47;;;;;;;14.25;46.89;101855.09;5092144;28;20126;-68
2022/09/05 01:43:24;;;;;;;8.02;4.13;;;;;;;14.30;46.56;101844.69;5092318;28;20376;-68
2022/09/05 01:45:58;;;;;;;10.43;5.00;;;;;;;14.27;46.72;101847.69;5073313;28;20048;-68
2022/09/05 01:48:29;;;;;;;11.02;4.22;;;;;;;14.34;46.60;101846.06;5090197;28;20468;-68
2022/09/05 01:51:17;;;;;;;9.47;4.20;;;;;;;14.11;47.31;101850.25;5091305;28;20051;-68
2022/09/05 01:54:18;;;;;;;10.52;4.78;;;;;;;14.27;46.89;101861.19;5092327;28;20044;-67
2022/09/05 01:57:19;;;;;;;5.50;4.00;;;;;;;14.32;46.77;101849.91;5092881;28;20403;-67
2022/09/05 02:00:07;;;;;;;11.40;4.85;;;;;;;14.30;46.74;101859.03;5091931;28;20588;-67
2022/09/05 02:02:41;;;;;;;9.23;4.50;;;;;;;14.21;47.04;101862.66;5091041;28;20040;-67
2022/09/05 02:05:52;;;;;;;8.93;5.07;;;;;;;14.30;46.75;101869.81;5092246;28;20052;-67
2022/09/05 02:08:56;;;;;;;9.27;4.65;;;;;;;14.15;47.15;101855.19;5091474;28;20048;-67
2022/09/05 02:11:51;;;;;;;8.82;4.70;;;;;;;14.10;47.06;101857.50;5091864;28;20095;-67
2022/09/05 02:14:20;;;;;;;8.80;4.13;;;;;;;14.22;47.08;101866.19;5091598;28;20047;-67
2022/09/05 02:17:14;;;;;;;;;;;;;;;14.18;47.07;101868.34;5092486;28;20533;-67
2022/09/05 02:20:28;;;;;;;7.30;4.63;;;;;;;14.08;47.32;101864.06;5082771;28;19920;-67
2022/09/05 02:22:55;;;;;;;8.35;4.18;;;;;;;14.13;47.42;101870.69;5091711;28;20050;-67
2022/09/05 02:25:43;;;;;;;9.93;5.22;;;;;;;14.00;47.69;101868.38;5082502;28;20064;-67
2022/09/05 02:28:50;;;;;;;8.93;4.20;;;;;;;14.00;47.66;101875.63;5092988;28;20403;-67
2022/09/05 02:31:32;;;;;;;13.20;4.95;;;;;;;14.14;47.47;101864.28;5082301;28;20443;-67
2022/09/05 02:34:10;;;;;;;14.95;5.05;;;;;;;14.04;47.86;101872.44;5093137;28;20040;-67
2022/09/05 02:37:09;;;;;;;7.95;4.80;;;;;;;13.94;48.13;101870.84;5089806;28;20063;-67
2022/09/05 02:39:44;;;;;;;9.15;4.40;;;;;;;13.93;48.04;101872.69;5072251;28;20135;-67
2022/09/05 02:42:41;;;;;;;9.10;4.97;;;;;;;13.96;48.35;101876.94;5067867;28;20469;-67
2022/09/05 02:45:43;;;;;;;10.18;4.90;;;;;;;14.10;47.78;101864.75;5072134;28;20481;-67
2022/09/05 02:48:26;;;;;;;11.68;4.90;;;;;;;13.85;48.18;101869.09;5071058;28;20045;-67
2022/09/05 02:51:20;;;;;;;8.60;5.18;;;;;;;14.04;47.91;101877.84;5070147;28;20124;-67
2022/09/05 02:54:24;;;;;;;9.35;4.80;;;;;;;13.82;48.49;101871.06;5069765;28;20404;-67
2022/09/05 02:57:28;;;;;;;13.20;5.35;;;;;;;13.97;48.10;101879.47;5070443;28;20504;-67
2022/09/05 03:00:20;;;;;;;7.00;4.72;;;;;;;13.81;48.47;101880.19;5062612;28;20408;-67
2022/09/05 03:03:24;;;;;;;9.27;5.18;;;;;;;13.82;48.40;101871.06;5069557;28;20047;-67
2022/09/05 03:06:04;;;;;;;9.63;5.10;;;;;;;13.81;48.59;101868.56;5026407;28;20059;-67
2022/09/05 03:08:58;;;;;;;10.98;5.15;;;;;;;13.68;48.98;101876.13;5070559;28;20119;-67
2022/09/05 03:11:58;;;;;;;10.98;5.05;;;;;;;13.62;49.16;101874.03;5070274;28;20129;-67
2022/09/05 03:15:15;;;;;;;10.77;5.55;;;;;;;13.62;48.92;101868.66;5065440;28;20048;-67
2022/09/05 03:18:30;;;;;;;7.70;4.65;;;;;;;13.53;49.18;101867.72;5069921;28;20524;-67
2022/09/05 03:21:18;;;;;;;13.80;5.22;;;;;;;13.56;49.03;101853.91;5069574;28;20400;-67
2022/09/05 03:23:54;;;;;;;14.25;5.28;;;;;;;13.57;48.99;101861.88;5052108;28;20055;-67
2022/09/05 03:26:42;;;;;;;13.50;5.20;;;;;;;13.55;49.05;101863.00;5069725;28;20472;-67
2022/09/05 03:29:46;;;;;;;10.43;4.65;;;;;;;13.46;49.17;101862.09;5061585;28;20091;-67
2022/09/05 03:32:27;;;;;;;13.50;4.97;;;;;;;13.63;48.93;101865.81;5062861;28;20044;-67
2022/09/05 03:35:31;;;;;;;13.00;5.43;;;;;;;13.44;49.39;101871.31;5052665;28;20052;-67
2022/09/05 03:38:21;;;;;;;8.73;5.25;;;;;;;13.52;49.17;101864.16;4987273;28;20130;-67
2022/09/05 03:41:22;;;;;;;9.63;4.80;;;;;;;13.54;49.00;101872.09;4988798;28;20047;-67
2022/09/05 03:44:47;;;;;;;11.18;5.10;;;;;;;13.49;49.17;101869.88;4988011;28;20112;-67
2022/09/05 03:47:46;;;;;;;7.03;4.55;;;;;;;13.54;49.16;101872.09;4989181;28;20125;-67
2022/09/05 03:50:31;;;;;;;11.07;4.88;;;;;;;13.59;49.19;101869.78;4987985;28;20556;-67
2022/09/05 03:53:42;;;;;;;8.30;5.10;;;;;;;13.38;49.47;101867.38;4988540;28;20395;-67
2022/09/05 03:56:47;;;;;;;14.35;4.65;;;;;;;13.50;49.34;101868.88;4988917;28;20051;-67
2022/09/05 03:59:52;;;;;;;16.42;5.22;;;;;;;13.43;49.49;101858.84;4988546;28;20181;-67
2022/09/05 04:02:25;;;;;;;9.40;4.95;;;;;;;13.50;49.23;101857.25;4988971;28;20050;-67
2022/09/05 04:05:14;;;;;;;11.02;4.90;;;;;;;13.34;49.86;101868.66;4981130;28;20137;-67
2022/09/05 04:08:34;;;;;;;13.35;4.85;;;;;;;13.34;49.59;101866.81;4989528;28;20484;-67
2022/09/05 04:11:16;;;;;;;9.95;4.90;;;;;;;13.23;50.01;101858.09;4996499;28;20187;-67
2022/09/05 04:13:51;;;;;;;10.13;4.25;;;;;;;13.31;49.77;101869.81;5089784;28;20460;-67
2022/09/05 04:16:17;;;;;;;11.35;4.75;;;;;;;13.36;49.53;101864.00;5089164;28;20071;-67
2022/09/05 04:18:50;;;;;;;10.45;5.03;;;;;;;13.18;50.04;101863.94;5089711;28;20071;-67
2022/09/05 04:21:28;;;;;;;12.43;4.75;;;;;;;13.22;50.01;101857.25;5089628;28;20052;-67
2022/09/05 04:24:13;;;;;;;16.98;5.18;;;;;;;13.16;49.89;101874.00;5089197;28;20416;-67
2022/09/05 04:26:45;;;;;;;12.88;5.07;;;;;;;13.27;49.78;101868.41;5089414;28;20123;-67
2022/09/05 04:29:30;;;;;;;6.72;4.20;;;;;;;13.17;50.10;101872.16;5082132;28;20055;-67
2022/09/05 04:32:22;;;;;;;7.55;4.82;;;;;;;13.27;49.90;101878.34;5089075;28;20072;-68
2022/09/05 04:35:03;;;;;;;10.30;5.30;;;;;;;13.36;49.54;101880.16;5050978;28;20040;-67
2022/09/05 04:37:53;;;;;;;12.45;4.38;;;;;;;13.25;49.99;101878.53;5089722;28;20082;-67
2022/09/05 04:40:38;;;;;;;9.85;4.40;;;;;;;13.20;49.90;101878.09;5088350;28;20542;-67
2022/09/05 04:43:23;;;;;;;11.18;4.47;;;;;;;13.24;49.78;101878.66;5091302;28;20127;-67
2022/09/05 04:45:57;;;;;;;8.70;4.40;;;;;;;13.30;49.83;101878.91;5093008;28;20119;-67
2022/09/05 04:48:32;;;;;;;18.30;5.05;;;;;;;13.32;49.75;101890.41;5093495;28;20117;-67
2022/09/05 04:51:08;;;;;;;11.93;4.45;;;;;;;13.31;49.80;101885.97;5092907;28;20040;-67
2022/09/05 04:54:15;;;;;;;12.05;4.88;;;;;;;13.48;49.36;101881.63;5091693;28;20493;-67
2022/09/05 04:56:48;;;;;;;12.70;4.00;;;;;;;13.36;49.75;101890.94;5052959;28;20519;-67
2022/09/05 04:59:25;;;;;;;10.30;4.68;;;;;;;13.32;49.80;101887.69;5092690;28;20556;-67
2022/09/05 05:02:34;;;;;;;17.33;4.20;;;;;;;13.43;49.77;101883.09;5084928;28;20480;-67
2022/09/05 05:05:24;;;;;;;8.63;4.47;;;;;;;13.23;50.09;101883.19;5091899;28;20048;-67
2022/09/05 05:08:42;;;;;;;10.45;4.43;;;;;;;13.21;50.30;101885.19;5093062;28;20044;-67
2022/09/05 05:11:16;;;;;;;13.70;4.63;;;;;;;13.31;49.86;101896.75;5092445;28;20052;-67
2022/09/05 05:14:45;;;;;;;16.20;4.40;;;;;;;13.20;50.13;101891.56;5083823;28;20127;-67
2022/09/05 05:18:04;;;;;;;7.47;4.00;;;;;;;13.24;50.28;101892.97;5091374;28;20054;-67
2022/09/05 05:21:06;;;;;;;8.43;4.47;;;;;;;13.33;50.00;101892.09;5091964;28;20054;-67
2022/09/05 05:23:55;;;;;;;11.23;4.50;;;;;;;13.24;50.04;101892.13;5092702;28;20044;-67
2022/09/05 05:26:28;;;;;;;9.02;4.13;;;;;;;13.37;50.24;101894.47;5091992;28;20048;-67
2022/09/05 05:28:59;;;;;;;14.70;4.32;;;;;;;13.42;49.94;101908.34;5083825;28;20044;-67
2022/09/05 05:31:30;;;;;;;8.18;3.85;;;;;;;13.61;49.35;101908.25;5092602;28;20131;-67
2022/09/05 05:34:01;;;;;;;9.18;4.25;;;;;;;13.67;49.53;101909.50;5092380;28;20126;-67
2022/09/05 05:37:24;;;;;;;8.48;3.80;;;;;;;13.46;49.73;101909.75;5091608;28;20476;-67
2022/09/05 05:40:02;;;;;;;15.65;4.45;;;;;;;13.62;49.76;101912.63;5067680;28;20131;-68
2022/09/05 05:42:30;;;;;;;10.85;4.70;;;;;;;13.63;49.60;101914.34;5071289;28;20504;-67
2022/09/05 05:44:57;;;;;;;16.10;4.40;;;;;;;13.66;49.57;101916.72;5071011;28;20170;-67
2022/09/05 05:47:48;;;;;;;13.38;4.68;;;;;;;13.65;49.61;101906.94;5071896;28;20055;-69
2022/09/05 05:50:32;;;;;;;10.77;4.70;;;;;;;13.59;49.79;101907.53;5064742;28;20136;-67
2022/09/05 05:53:13;;;;;;;10.00;4.45;;;;;;;13.53;49.84;101914.41;5071431;28;20068;-67
2022/09/05 05:56:31;;;;;;;11.00;5.15;;;;;;;13.75;49.57;101913.13;5030258;28;20045;-67
2022/09/05 05:59:15;;;;;;;11.10;3.88;;;;;;;13.82;49.54;101910.69;5081986;28;20127;-67
2022/09/05 06:02:13;;;;;;;7.03;3.30;;;;;;;13.47;50.10;101908.75;5081153;28;20127;-67
2022/09/05 06:04:59;;;;;;;14.35;4.00;;;;;;;13.46;50.27;101915.16;5091392;28;20056;-68
2022/09/05 06:07:55;;;;;;;8.18;3.75;;;;;;;13.61;50.04;101916.34;5071129;28;20437;-67
2022/09/05 06:10:51;;;;;;;14.55;4.93;;;;;;;13.81;49.60;101917.94;5071037;28;20485;-67
2022/09/05 06:13:43;;;;;;;8.80;4.22;;;;;;;14.03;48.76;101913.09;5073581;28;20051;-67
2022/09/05 06:16:42;;;;;;;14.20;3.95;;;;;;;13.96;49.31;101914.72;5091393;28;20050;-68
2022/09/05 06:19:17;;;;;;;8.85;3.95;;;;;;;14.07;48.97;101917.19;5091899;28;20044;-68
2022/09/05 06:21:50;;;;;;;8.45;3.88;;;;;;;14.32;48.44;101920.09;5091795;28;20123;-67
2022/09/05 06:25:00;;;;;;;15.82;4.22;;;;;;;14.29;48.45;101921.28;5089414;28;20047;-68
2022/09/05 06:28:13;;;;;;;12.27;3.78;;;;;;;14.24;48.58;101923.56;5079719;28;20469;-67
2022/09/05 06:30:53;;;;;;;;;;;;;;;14.51;48.04;101931.56;5089922;28;20219;-67
2022/09/05 06:33:47;;;;;;;13.30;3.90;;;;;;;14.79;47.17;101934.16;5083577;28;19921;-68
2022/09/05 06:36:51;;;;;;;11.13;3.75;;;;;;;15.17;46.77;101934.72;5072561;28;20484;-69
2022/09/05 06:39:39;;;;;;;8.65;4.22;;;;;;;15.43;46.29;101924.72;5070891;28;20064;-68
2022/09/05 06:42:49;;;;;;;12.82;3.75;;;;;;;15.60;45.72;101931.03;5078536;28;20050;-67
2022/09/05 06:45:45;;;;;;;7.88;4.05;;;;;;;15.58;46.03;101929.50;5091323;28;20540;-69
2022/09/05 06:48:28;;;;;;;11.93;3.65;;;;;;;15.85;45.56;101932.00;5091389;28;20047;-68
2022/09/05 06:51:34;;;;;;;18.00;4.05;;;;;;;16.47;44.35;101936.97;5091712;28;20032;-69
2022/09/05 06:54:06;;;;;;;11.43;4.07;;;;;;;16.12;44.75;101938.94;5055110;28;20068;-69
2022/09/05 06:57:03;;;;;;;11.02;3.70;;;;;;;16.16;44.96;101937.63;5078933;28;20062;-69
2022/09/05 07:00:09;;;;;;;15.50;4.40;;;;;;;16.07;45.00;101944.03;5080857;28;20533;-69
2022/09/05 07:03:29;;;;;;;12.38;3.45;;;;;;;16.27;45.04;101943.72;5049865;28;20040;-68
2022/09/05 07:06:36;;;;;;;12.20;3.63;;;;;;;16.30;45.10;101949.66;5050553;28;20037;-69
2022/09/05 07:09:43;;;;;;;17.85;4.00;;;;;;;15.87;46.11;101948.88;5017077;28;20404;-68
2022/09/05 07:12:22;;;;;;;9.48;3.55;;;;;;;15.82;46.11;101950.41;4999630;28;20538;-67
2022/09/05 07:15:15;;;;;;;12.23;3.20;;;;;;;16.15;45.82;101952.16;5028398;28;20119;-67
2022/09/05 07:18:06;;;;;;;11.63;3.67;;;;;;;16.76;44.77;101951.88;5027325;28;20120;-67
2022/09/05 07:20:47;;;;;;;14.48;3.53;;;;;;;17.04;43.78;101950.47;5028550;28;20378;-67
2022/09/05 07:24:00;;;;;;;9.18;3.75;;;;;;;16.66;44.78;101950.19;5027317;28;20417;-67
2022/09/05 07:26:41;;;;;;;7.63;3.60;;;;;;;16.65;45.15;101953.06;5028212;28;20452;-68
2022/09/05 07:29:45;;;;;;;7.30;3.40;;;;;;;16.97;44.31;101960.31;5028764;28;20061;-68
2022/09/05 07:32:30;;;;;;;12.35;3.72;;;;;;;17.18;43.68;101951.59;5035626;28;20083;-68
2022/09/05 07:35:01;;;;;;;9.35;3.40;;;;;;;17.45;43.09;101953.06;5014488;28;20128;-68
2022/09/05 07:37:43;;;;;;;8.33;3.40;;;;;;;17.09;44.15;101948.09;5048952;28;20064;-68
2022/09/05 07:40:14;;;;;;;;;;;;;;;17.28;43.85;101952.25;5076816;28;20541;-68
2022/09/05 07:43:14;;;;;;;5.97;3.42;;;;;;;17.22;44.01;101952.09;5090634;28;19948;-68
2022/09/05 07:45:56;;;;;;;14.10;3.63;;;;;;;17.76;42.72;101958.53;5090003;28;20130;-68
2022/09/05 07:48:27;;;;;;;7.50;3.15;;;;;;;17.74;42.91;101959.72;5090034;28;20075;-69
2022/09/05 07:51:04;;;;;;;10.63;3.88;;;;;;;18.05;42.34;101959.72;5089852;28;20044;-68
2022/09/05 07:54:05;;;;;;;8.05;3.78;;;;;;;18.52;41.39;101959.56;5090589;28;20060;-69
2022/09/05 07:56:59;;;;;;;6.32;3.63;;;;;;;18.58;41.07;101957.13;5090253;28;20040;-68
2022/09/05 07:59:49;;;;;;;13.77;3.67;;;;;;;18.96;40.25;101968.84;5079852;28;20048;-68
2022/09/05 08:02:16;;;;;;;9.33;3.77;;;;;;;19.50;39.26;101964.00;5088661;28;20126;-68
2022/09/05 08:04:43;;;;;;;10.88;4.03;;;;;;;19.86;38.12;101960.47;5091158;28;20047;-69
2022/09/05 08:07:17;;;;;;;10.20;3.85;;;;;;;19.38;39.07;101962.81;5090584;28;20408;-68
2022/09/05 08:10:11;;;;;;;12.60;4.00;;;;;;;18.81;40.15;101959.81;5089597;28;20063;-68
2022/09/05 08:12:49;;;;;;;7.53;3.95;;;;;;;19.44;39.23;101962.03;5088365;28;20051;-69
2022/09/05 08:15:38;;;;;;;8.57;3.58;;;;;;;19.24;39.45;101959.06;5092070;28;20052;-69
2022/09/05 08:19:02;;;;;;;7.55;3.63;;;;;;;19.60;39.22;101962.88;5100763;28;20040;-68
2022/09/05 08:21:41;;;;;;;8.20;3.58;;;;;;;19.61;39.12;101959.09;5051719;28;20506;-67
2022/09/05 08:24:35;;;;;;;7.45;3.60;;;;;;;19.90;38.69;101959.09;5101064;28;20537;-68
2022/09/05 08:27:23;;;;;;;6.40;3.38;;;;;;;20.14;38.11;101957.00;5094254;28;20097;-69
2022/09/05 08:29:58;;;;;;;7.70;3.55;;;;;;;20.86;36.99;101956.00;5093936;28;20068;-69
2022/09/05 08:32:57;;;;;;;7.90;3.50;;;;;;;21.40;35.95;101946.28;5094015;28;20043;-68
2022/09/05 08:35:52;;;;;;;12.15;4.20;;;;;;;20.77;36.59;101946.28;5093265;28;20067;-69
2022/09/05 08:38:31;;;;;;;9.75;3.75;;;;;;;21.06;36.63;101943.34;5093158;28;20476;-69
2022/09/05 08:41:22;;;;;;;9.52;3.78;;;;;;;21.75;35.30;101944.31;5095450;28;20381;-68
2022/09/05 08:44:18;;;;;;;6.60;3.92;;;;;;;21.26;35.92;101939.91;5082145;28;20476;-69
2022/09/05 08:47:37;;;;;;;12.32;3.78;;;;;;;21.79;35.16;101934.66;5100704;28;20209;-69
2022/09/05 08:50:52;;;;;;;8.60;3.40;;;;;;;21.70;35.14;101930.44;5073104;28;20048;-69
2022/09/05 08:54:04;;;;;;;10.30;3.78;;;;;;;22.19;34.36;101923.88;5094342;28;20039;-69
2022/09/05 08:56:43;;;;;;;5.57;3.50;;;;;;;22.47;34.24;101924.53;5078495;28;20052;-69
2022/09/05 08:59:12;;;;;;;5.80;3.53;;;;;;;22.97;33.20;101932.25;5112824;28;20051;-70
2022/09/05 09:02:18;;;;;;;8.10;3.40;;;;;;;22.10;34.86;101920.47;5095334;28;20097;-69
2022/09/05 09:05:08;;;;;;;9.60;3.05;;;;;;;22.11;34.21;101916.69;5093257;28;20054;-69
2022/09/05 09:08:12;;;;;;;8.15;3.55;;;;;;;20.86;36.74;101918.66;5093430;28;21538;-69
2022/09/05 09:10:58;;;;;;;7.75;3.35;;;;;;;20.69;37.41;101911.81;5073298;28;20040;-68
2022/09/05 09:13:53;;;;;;;12.35;3.33;;;;;;;20.56;38.05;101906.25;5091359;28;20498;-68
2022/09/05 09:16:32;;;;;;;7.32;3.53;;;;;;;20.89;37.26;101912.78;5093388;28;20056;-69
2022/09/05 09:19:15;;;;;;;14.18;3.78;;;;;;;21.93;35.43;101913.72;5092869;28;20044;-69
2022/09/05 09:21:46;;;;;;;16.48;5.18;;;;;;;22.18;34.90;101905.78;5093127;28;20403;-69
2022/09/05 09:24:38;;;;;;;10.20;3.65;;;;;;;22.62;34.02;101913.38;5092789;28;20051;-69
2022/09/05 09:27:08;;;;;;;;;;;;;;;22.79;34.00;101908.31;5074727;28;20136;-69
2022/09/05 09:29:38;;;;;;;9.45;3.15;;;;;;;23.48;32.81;101918.66;5107122;28;20030;-69
2022/09/05 09:32:16;;;;;;;8.57;3.07;;;;;;;23.68;32.62;101918.56;5092814;28;20240;-69
2022/09/05 09:35:04;;;;;;;13.13;3.67;;;;;;;22.99;33.23;101925.53;5093516;28;20353;-70
2022/09/05 09:37:51;;;;;;;7.72;3.60;;;;;;;23.03;33.26;101915.00;5077598;28;20397;-69
2022/09/05 09:40:49;;;;;;;7.57;3.30;;;;;;;23.76;32.34;101913.91;5072830;28;20041;-68
2022/09/05 09:44:12;;;;;;;10.07;3.25;;;;;;;24.00;31.49;101915.88;5071962;28;20540;-69
2022/09/05 09:46:45;;;;;;;12.85;3.20;;;;;;;23.52;32.57;101916.31;5082412;28;20114;-69
2022/09/05 09:49:32;;;;;;;5.43;3.25;;;;;;;24.55;31.02;101915.28;5090854;28;20067;-69
2022/09/05 09:52:18;;;;;;;8.20;3.55;;;;;;;24.89;30.37;101909.22;5112526;28;20119;-69
2022/09/05 09:55:27;;;;;;;10.82;2.92;;;;;;;25.67;29.44;101909.59;5113176;28;20039;-69
2022/09/05 09:58:08;;;;;;;7.78;2.67;;;;;;;25.17;29.91;101904.31;5113110;28;20134;-70
2022/09/05 10:00:49;;;;;;;6.28;3.28;;;;;;;24.97;30.09;101905.34;5089994;28;20044;-70
2022/09/05 10:03:56;;;;;;;9.25;3.17;;;;;;;25.44;29.75;101904.81;5097072;28;20047;-69
2022/09/05 10:07:17;;;;;;;7.07;2.70;;;;;;;26.86;27.87;101902.19;5091421;28;20039;-69
2022/09/05 10:10:32;;;;;;;13.82;2.83;;;;;;;25.47;29.42;101896.94;5083585;28;20044;-69
2022/09/05 10:13:40;;;;;;;8.90;3.22;;;;;;;26.07;28.29;101894.19;5091666;28;20499;-69
2022/09/05 10:16:26;;;;;;;10.82;2.50;;;;;;;26.92;27.38;101892.97;5083199;28;20048;-68
2022/09/05 10:19:14;;;;;;;8.18;3.13;;;;;;;25.81;29.00;101883.59;5089300;28;20454;-68
2022/09/05 10:21:51;;;;;;;9.18;2.53;;;;;;;25.37;29.58;101891.16;5085583;28;20071;-69
2022/09/05 10:25:06;;;;;;;6.70;2.67;;;;;;;24.73;30.35;101881.53;5076208;28;20400;-70
2022/09/05 10:28:12;;;;;;;5.90;2.85;;;;;;;24.41;31.03;101879.72;5091567;28;20075;-69
2022/09/05 10:30:39;;;;;;;10.68;3.17;;;;;;;24.30;31.04;101876.81;5091272;28;20126;-70
2022/09/05 10:33:32;;;;;;;10.02;2.65;;;;;;;24.43;30.94;101868.50;5091436;28;20449;-68
2022/09/05 10:36:22;;;;;;;12.57;2.80;;;;;;;25.18;30.10;101862.03;5092135;28;20050;-68
2022/09/05 10:39:06;;;;;;;5.65;2.50;;;;;;;25.78;29.21;101868.41;5091647;28;20402;-70
2022/09/05 10:41:57;;;;;;;10.30;2.92;;;;;;;25.15;29.91;101861.44;5097823;28;20113;-68
2022/09/05 10:44:52;;;;;;;4.93;2.53;;;;;;;24.49;30.22;101848.41;5090474;28;20123;-69
2022/09/05 10:47:34;;;;;;;5.97;2.50;;;;;;;24.25;30.59;101852.00;5075297;28;20465;-69
2022/09/05 10:50:19;;;;;;;6.28;2.50;;;;;;;24.25;30.86;101841.03;5093928;28;20070;-68
2022/09/05 10:52:48;;;;;;;8.07;2.50;;;;;;;24.81;30.44;101851.03;5092052;28;20123;-69
2022/09/05 10:55:56;;;;;;;3.25;2.05;;;;;;;24.77;29.93;101847.91;5091139;28;20040;-68
2022/09/05 10:58:42;;;;;;;5.63;2.40;;;;;;;24.05;31.00;101842.03;5043425;28;20068;-68
2022/09/05 11:01:44;;;;;;;9.15;2.20;;;;;;;23.16;32.32;101849.28;5090509;28;20384;-69
2022/09/05 11:04:54;;;;;;;5.47;2.72;;;;;;;23.15;32.40;101842.13;5090705;28;20048;-69
2022/09/05 11:07:38;;;;;;;6.45;2.38;;;;;;;23.69;31.56;101829.81;5091706;28;20456;-69
2022/09/05 11:10:07;;;;;;;5.07;2.42;;;;;;;24.11;31.00;101829.34;5082767;28;20051;-69
2022/09/05 11:12:58;;;;;;;7.18;2.85;;;;;;;24.01;31.05;101829.81;5091254;28;20130;-68
2022/09/05 11:15:54;;;;;;;6.50;2.50;;;;;;;23.40;32.26;101814.84;5090416;28;20128;-69
2022/09/05 11:18:56;;;;;;;6.72;2.58;;;;;;;23.71;31.50;101816.75;5089917;28;20119;-69
2022/09/05 11:21:41;;;;;;;4.75;2.40;;;;;;;24.00;31.37;101817.19;5091123;28;20048;-69
2022/09/05 11:24:30;;;;;;;8.73;2.85;;;;;;;23.79;31.45;101821.16;5090715;28;20051;-69
2022/09/05 11:27:05;;;;;;;9.88;2.53;;;;;;;23.65;31.26;101823.13;5090593;28;20547;-69
2022/09/05 11:29:56;;;;;;;6.97;2.40;;;;;;;23.93;30.93;101828.22;5091282;28;20098;-69
2022/09/05 11:32:38;;;;;;;4.88;2.55;;;;;;;25.14;29.78;101810.34;5089858;28;20484;-69
2022/09/05 11:35:34;;;;;;;7.30;2.75;;;;;;;25.71;28.71;101817.38;5096383;28;20510;-68
2022/09/05 11:38:33;;;;;;;8.98;2.78;;;;;;;26.26;28.05;101817.13;5084859;28;20071;-68
2022/09/05 11:41:23;;;;;;;6.25;2.97;;;;;;;26.99;27.03;101824.81;5086153;28;20048;-69
2022/09/05 11:44:03;;;;;;;4.90;2.63;;;;;;;27.33;26.78;101818.63;5091499;28;20046;-69
2022/09/05 11:47:15;;;;;;;5.07;2.50;;;;;;;27.37;26.08;101817.88;5091428;28;20054;-69
2022/09/05 11:50:26;;;;;;;5.15;3.05;;;;;;;27.74;25.98;101811.94;5075854;28;20036;-69
2022/09/05 11:53:46;;;;;;;6.05;2.70;;;;;;;29.17;24.24;101805.78;5090637;28;20040;-68
2022/09/05 11:56:43;;;;;;;8.85;2.72;;;;;;;27.75;25.47;101805.34;5007950;28;20606;-69
2022/09/05 11:59:38;;;;;;;4.75;2.67;;;;;;;25.25;28.73;101796.88;5008737;28;20050;-69
2022/09/05 12:02:48;;;;;;;13.30;3.17;;;;;;;24.87;29.61;101792.50;5008845;28;20050;-70
2022/09/05 12:05:39;;;;;;;6.60;2.63;;;;;;;25.95;28.65;101799.00;5008933;28;20119;-69
2022/09/05 12:08:45;;;;;;;4.53;2.75;;;;;;;25.91;28.52;101795.91;5014708;28;20037;-69
2022/09/05 12:11:52;;;;;;;4.55;2.55;;;;;;;24.23;30.27;101799.25;5021558;28;20494;-70
2022/09/05 12:14:35;;;;;;;8.55;2.60;;;;;;;22.81;32.92;101796.78;5012241;28;20079;-69
2022/09/05 12:17:30;;;;;;;5.43;2.75;;;;;;;22.89;33.26;101788.31;5021137;28;20463;-69
2022/09/05 12:20:26;;;;;;;5.55;2.85;;;;;;;23.17;32.75;101785.25;5014589;28;20099;-69
2022/09/05 12:23:24;;;;;;;6.90;2.67;;;;;;;22.89;33.42;101776.53;4984995;28;20038;-69
2022/09/05 12:26:33;;;;;;;7.70;2.78;;;;;;;22.48;33.69;101780.44;5016502;28;20054;-69
2022/09/05 12:29:22;;;;;;;5.57;2.70;;;;;;;22.47;34.01;101776.88;5026708;28;20048;-68
2022/09/05 12:32:03;;;;;;;13.65;3.05;;;;;;;22.95;33.64;101775.69;5090368;28;20055;-68
2022/09/05 12:34:56;;;;;;;5.20;3.40;;;;;;;24.09;31.54;101772.00;5086178;28;20473;-69
2022/09/05 12:38:01;;;;;;;8.93;3.45;;;;;;;24.97;30.30;101776.31;5081194;28;20051;-68
2022/09/05 12:41:03;;;;;;;9.35;3.28;;;;;;;24.14;31.30;101769.41;5068919;28;20048;-68
2022/09/05 12:43:53;;;;;;;5.03;2.67;;;;;;;24.43;31.15;101772.50;5061480;28;20050;-69
2022/09/05 12:46:52;;;;;;;5.70;3.60;;;;;;;24.72;30.32;101775.59;5068831;28;20045;-69
2022/09/05 12:49:18;;;;;;;12.82;3.25;;;;;;;24.18;34.77;101772.53;5068340;28;20051;-69
2022/09/05 12:51:59;;;;;;;5.28;3.05;;;;;;;23.77;34.83;101754.75;5070051;28;20106;-69
2022/09/05 12:54:32;;;;;;;13.20;3.35;;;;;;;22.77;36.06;101759.94;5069179;28;20139;-69
2022/09/05 12:57:14;;;;;;;6.78;3.47;;;;;;;23.41;34.43;101758.19;5069591;28;20040;-69
2022/09/05 13:00:23;;;;;;;10.40;3.25;;;;;;;22.81;35.04;101763.94;5068251;28;20044;-69
2022/09/05 13:03:22;;;;;;;10.32;3.58;;;;;;;21.99;37.20;101754.44;5071435;28;20163;-69
2022/09/05 13:06:08;;;;;;;5.10;3.30;;;;;;;21.59;38.14;101759.84;5071887;28;20091;-68
2022/09/05 13:08:58;;;;;;;9.60;3.53;;;;;;;21.41;38.69;101754.16;5072473;28;20116;-68
2022/09/05 13:11:28;;;;;;;7.22;3.47;;;;;;;21.78;37.18;101752.72;5068269;28;20044;-68
2022/09/05 13:14:24;;;;;;;7.30;3.33;;;;;;;21.37;38.41;101751.00;5073019;28;20457;-68
2022/09/05 13:17:14;;;;;;;6.70;3.30;;;;;;;21.40;38.74;101755.19;5064785;28;20055;-68